M/y Sokar — ZCAJ9 — position and weather

sailwx.info

Track history (hours):
 
Tides and Currents Weather Stations Pressure Air Temp Water Temp Dewpoint Dewpoint Depression Visibility Wind Speed Wind Dir Waves Ship Positions

M/y Sokar

Last reported at 2018-May-23 20:52 UTC. Time now 2018-May-24 02:28 UTC.
Position N 44°18' E 009°13'.

Length 64 m; draft 3.9 m.

Type: Pleasure craft. MMSI: 310222000.

Date/timePositionNaut miles runAvg speedWind from/ knotsBaromVisibWave heightAir tempDewpointWater temp
2018-May-23 20:52N 44°18' E 009°13'0 0.1
2018-May-23 16:31N 44°18' E 009°13'0 1.0
2018-May-23 16:28N 44°18' E 009°13'0 0.9
2018-May-23 16:00N 44°19' E 009°13'0 0.1
2018-May-23 15:30N 44°19' E 009°13'0 0.0
2018-May-23 15:00N 44°19' E 009°13'0 0.0
2018-May-23 14:30N 44°19' E 009°13'0 0.0
2018-May-23 14:00N 44°19' E 009°13'0 0.0
2018-May-23 13:30N 44°19' E 009°13'0 0.0
2018-May-23 12:57N 44°19' E 009°13'0 0.0
2018-May-23 12:27N 44°19' E 009°13'0 0.0
2018-May-23 11:27N 44°19' E 009°13'1 1.9
2018-May-23 11:01N 44°18' E 009°14'611.1
2018-May-23 10:30N 44°13' E 009°17'3 6.4
2018-May-23 10:00N 44°13' E 009°21'2 3.2
2018-May-23 09:30N 44°15' E 009°22'6 7.7
2018-May-23 08:40N 44°19' E 009°16'2 6.6
2018-May-23 08:24N 44°19' E 009°13'0 0.1
2018-May-23 06:38N 44°18' E 009°13'0 0.0
2018-May-23 05:32N 44°18' E 009°13'0 0.0
2018-May-23 05:14N 44°18' E 009°13'0 0.0
2018-May-23 04:41N 44°18' E 009°13'0 0.0
2018-May-23 04:29N 44°18' E 009°13'0 0.0
2018-May-23 03:53N 44°18' E 009°13'0 0.0
2018-May-23 03:26N 44°18' E 009°13'0 0.0
2018-May-23 02:59N 44°18' E 009°13'0 0.0
2018-May-23 02:20N 44°18' E 009°13'0 0.0
2018-May-23 01:08N 44°18' E 009°13'0 0.1
2018-May-23 00:59N 44°18' E 009°13'0 0.0
2018-May-23 00:29N 44°18' E 009°13'0 0.0
2018-May-22 23:41N 44°18' E 009°13'0 0.0
2018-May-22 23:20N 44°18' E 009°13'0 0.0
2018-May-22 22:50N 44°18' E 009°13'0 0.0
2018-May-22 22:08N 44°18' E 009°13'0 0.0
2018-May-22 21:53N 44°18' E 009°13'0 0.0
2018-May-22 21:02N 44°18' E 009°13'0 0.0
2018-May-22 20:41N 44°18' E 009°13'0 0.0
2018-May-22 19:44N 44°18' E 009°13'0 0.0
2018-May-22 19:17N 44°18' E 009°13'0 0.0
2018-May-22 18:59N 44°19' E 009°13'0 0.0
2018-May-22 18:20N 44°19' E 009°13'0 0.0
2018-May-22 17:47N 44°19' E 009°13'0 0.0
2018-May-22 17:26N 44°19' E 009°13'0 0.0
2018-May-22 16:50N 44°19' E 009°13'0 0.0
2018-May-22 16:23N 44°19' E 009°13'0 0.0
2018-May-22 15:47N 44°19' E 009°13'0 0.0
2018-May-22 15:29N 44°19' E 009°13'0 0.0
2018-May-22 14:47N 44°19' E 009°13'0 0.0
2018-May-22 14:11N 44°19' E 009°13'0 0.0
2018-May-22 13:59N 44°19' E 009°13'0 0.0
2018-May-22 13:29N 44°19' E 009°13'0 0.1
2018-May-22 12:59N 44°19' E 009°13'0 0.1
2018-May-22 12:29N 44°19' E 009°13'0 0.0
2018-May-22 10:08N 44°18' E 009°13'0 0.0
2018-May-22 09:44N 44°18' E 009°13'0 0.0
2018-May-22 09:17N 44°18' E 009°13'0 0.1
2018-May-22 09:00N 44°19' E 009°13'2 4.7
2018-May-22 08:30N 44°17' E 009°11'713.9
2018-May-22 08:00N 44°19' E 009°01'511.0
2018-May-22 07:30N 44°23' E 008°57'2 3.3
2018-May-22 06:59N 44°25' E 008°55'0 0.0
2018-May-22 06:26N 44°25' E 008°55'0 0.0
2018-May-22 05:59N 44°25' E 008°55'0 0.0
2018-May-22 05:29N 44°25' E 008°55'0 0.0
2018-May-22 04:59N 44°25' E 008°55'0 0.0
2018-May-22 04:29N 44°25' E 008°55'0 0.0
2018-May-22 03:59N 44°25' E 008°55'0 0.0
2018-May-22 03:29N 44°25' E 008°55'0 0.0
2018-May-22 02:59N 44°25' E 008°55'0 0.0
2018-May-22 02:29N 44°25' E 008°55'0 0.0
2018-May-22 01:59N 44°25' E 008°55'0 0.0
2018-May-22 01:29N 44°25' E 008°55'0 0.0
2018-May-22 00:59N 44°25' E 008°55'0 0.0
2018-May-22 00:29N 44°25' E 008°55'0 0.0
2018-May-21 23:59N 44°25' E 008°55'0 0.0
2018-May-21 23:29N 44°25' E 008°55'0 0.0
2018-May-21 22:56N 44°25' E 008°55'0 0.0
2018-May-21 22:26N 44°25' E 008°55'0 0.0
2018-May-21 21:56N 44°25' E 008°55'0 0.0
2018-May-21 21:26N 44°25' E 008°55'0 0.0
2018-May-21 20:59N 44°25' E 008°55'0 0.0
2018-May-21 20:26N 44°25' E 008°55'0 0.0
2018-May-21 19:53N 44°25' E 008°55'0 0.0
2018-May-21 19:26N 44°25' E 008°55'0 0.0
2018-May-21 18:56N 44°25' E 008°55'0 0.0
2018-May-21 18:29N 44°25' E 008°55'0 0.0
2018-May-21 17:56N 44°25' E 008°55'0 0.0
2018-May-21 17:29N 44°25' E 008°55'0 0.0
2018-May-21 16:56N 44°25' E 008°55'0 0.0
2018-May-21 16:26N 44°25' E 008°55'0 0.0
2018-May-21 15:59N 44°25' E 008°55'0 0.0
2018-May-21 15:29N 44°25' E 008°55'0 0.0
2018-May-21 14:59N 44°25' E 008°55'0 0.0
2018-May-21 14:29N 44°25' E 008°55'0 0.0
2018-May-21 13:59N 44°25' E 008°55'0 0.0
2018-May-21 13:29N 44°25' E 008°55'0 0.0
2018-May-21 12:56N 44°25' E 008°55'0 0.0
2018-May-21 12:29N 44°25' E 008°55'0 0.0
2018-May-21 11:53N 44°25' E 008°55'0 0.0
2018-May-21 11:29N 44°25' E 008°55'0 0.0
2018-May-21 10:59N 44°25' E 008°55'0 0.0
2018-May-21 10:29N 44°25' E 008°55'0 0.0
2018-May-21 09:59N 44°25' E 008°55'0 0.0
2018-May-21 09:29N 44°25' E 008°55'0 0.0
2018-May-21 08:56N 44°25' E 008°55'0 0.0
2018-May-21 08:20N 44°25' E 008°55'0 0.0
2018-May-21 07:56N 44°25' E 008°55'0 0.0
2018-May-21 07:29N 44°25' E 008°55'0 0.0
2018-May-21 06:59N 44°25' E 008°55'0 0.0
2018-May-21 06:23N 44°25' E 008°55'0 0.0
2018-May-21 05:59N 44°25' E 008°55'0 0.0
2018-May-21 05:26N 44°25' E 008°55'0 0.0
2018-May-21 04:59N 44°25' E 008°55'0 0.0
2018-May-21 04:26N 44°25' E 008°55'0 0.0
2018-May-21 03:56N 44°25' E 008°55'0 0.0
2018-May-21 03:29N 44°25' E 008°55'0 0.0
2018-May-21 02:56N 44°25' E 008°55'0 0.0
2018-May-21 02:29N 44°25' E 008°55'0 0.0
2018-May-21 01:56N 44°25' E 008°55'0 0.0
2018-May-21 01:29N 44°25' E 008°55'0 0.0
2018-May-21 00:59N 44°25' E 008°55'0 0.0
2018-May-21 00:29N 44°25' E 008°55'0 0.0
2018-May-20 23:59N 44°25' E 008°55'0 0.0
2018-May-20 23:29N 44°25' E 008°55'0 0.0
2018-May-20 22:59N 44°25' E 008°55'0 0.0
2018-May-20 22:29N 44°25' E 008°55'0 0.0
2018-May-20 21:59N 44°25' E 008°55'0 0.0
2018-May-20 21:29N 44°25' E 008°55'0 0.0
2018-May-20 20:56N 44°25' E 008°55'0 0.0
2018-May-20 20:29N 44°25' E 008°55'0 0.0
2018-May-20 19:59N 44°25' E 008°55'0 0.0
2018-May-20 19:17N 44°25' E 008°55'0 0.0
2018-May-20 18:59N 44°25' E 008°55'0 0.0
2018-May-20 18:26N 44°25' E 008°55'0 0.0
2018-May-20 17:50N 44°25' E 008°55'0 0.0
2018-May-20 17:29N 44°25' E 008°55'0 0.0
2018-May-20 16:53N 44°25' E 008°55'0 0.0
2018-May-20 16:26N 44°25' E 008°55'0 0.0
2018-May-20 15:53N 44°25' E 008°55'0 0.0
2018-May-20 15:20N 44°25' E 008°55'0 0.0
2018-May-20 14:56N 44°25' E 008°55'0 0.0
2018-May-20 14:26N 44°25' E 008°55'0 0.0
2018-May-20 13:56N 44°25' E 008°55'0 0.0
2018-May-20 13:26N 44°25' E 008°55'0 0.0
2018-May-20 12:56N 44°25' E 008°55'0 0.0
2018-May-20 12:26N 44°25' E 008°55'0 0.0
2018-May-20 11:59N 44°25' E 008°55'0 0.0
2018-May-20 11:29N 44°25' E 008°55'0 0.0
2018-May-20 10:59N 44°25' E 008°55'0 0.0
2018-May-20 10:26N 44°25' E 008°55'0 0.0
2018-May-20 09:59N 44°25' E 008°55'0 0.0
2018-May-20 09:29N 44°25' E 008°55'0 0.0
2018-May-20 08:59N 44°25' E 008°55'0 0.0
2018-May-20 08:29N 44°25' E 008°55'0 0.0
2018-May-20 07:59N 44°25' E 008°55'0 0.0
2018-May-20 07:29N 44°25' E 008°55'0 0.0
2018-May-20 06:59N 44°25' E 008°55'0 0.0
2018-May-20 06:29N 44°25' E 008°55'0 0.0
2018-May-20 05:59N 44°25' E 008°55'0 0.0
2018-May-20 05:29N 44°25' E 008°55'0 0.0
2018-May-20 04:59N 44°25' E 008°55'0 0.0
2018-May-20 04:26N 44°25' E 008°55'0 0.0
2018-May-20 03:56N 44°25' E 008°55'0 0.0
2018-May-20 03:26N 44°25' E 008°55'0 0.0
2018-May-20 02:56N 44°25' E 008°55'0 0.0
2018-May-20 02:26N 44°25' E 008°55'0 0.0
2018-May-20 01:56N 44°25' E 008°55'0 0.0
2018-May-20 01:23N 44°25' E 008°55'0 0.0
2018-May-20 00:56N 44°25' E 008°55'0 0.0
2018-May-20 00:26N 44°25' E 008°55'0 0.0
2018-May-19 23:56N 44°25' E 008°55'0 0.0
2018-May-19 23:26N 44°25' E 008°55'0 0.0
2018-May-19 22:56N 44°25' E 008°55'0 0.0
2018-May-19 22:26N 44°25' E 008°55'0 0.0
2018-May-19 21:56N 44°25' E 008°55'0 0.0
2018-May-19 21:29N 44°25' E 008°55'0 0.0
2018-May-19 20:59N 44°25' E 008°55'0 0.0
2018-May-19 20:29N 44°25' E 008°55'0 0.0
2018-May-19 19:59N 44°25' E 008°55'0 0.0
2018-May-19 19:29N 44°25' E 008°55'0 0.0
2018-May-19 18:59N 44°25' E 008°55'0 0.0
2018-May-19 18:29N 44°25' E 008°55'0 0.0
2018-May-19 17:59N 44°25' E 008°55'0 0.0
2018-May-19 17:29N 44°25' E 008°55'0 0.0
2018-May-19 16:56N 44°25' E 008°55'0 0.0
2018-May-19 16:29N 44°25' E 008°55'0 0.0
2018-May-19 15:59N 44°25' E 008°55'0 0.0
2018-May-19 15:29N 44°25' E 008°55'0 0.0
2018-May-19 14:59N 44°25' E 008°55'0 0.0
2018-May-19 14:26N 44°25' E 008°55'0 0.0
2018-May-19 13:56N 44°25' E 008°55'0 0.0
2018-May-19 13:26N 44°25' E 008°55'0 0.0
2018-May-19 12:56N 44°25' E 008°55'0 0.0
2018-May-19 12:26N 44°25' E 008°55'0 0.0
2018-May-19 11:56N 44°25' E 008°55'0 0.0
2018-May-19 11:26N 44°25' E 008°55'0 0.0
2018-May-19 10:56N 44°25' E 008°55'0 0.0
2018-May-19 10:26N 44°25' E 008°55'0 0.0
2018-May-19 09:56N 44°25' E 008°55'0 0.0
2018-May-19 09:26N 44°25' E 008°55'0 0.0
2018-May-19 08:56N 44°25' E 008°55'0 0.0
2018-May-19 08:23N 44°25' E 008°55'0 0.0
2018-May-19 07:56N 44°25' E 008°55'0 0.0
2018-May-19 07:29N 44°25' E 008°55'0 0.0
2018-May-19 06:59N 44°25' E 008°55'0 0.0
2018-May-19 06:29N 44°25' E 008°55'0 0.0
2018-May-19 05:59N 44°25' E 008°55'0 0.0
2018-May-19 05:29N 44°25' E 008°55'0 0.0
2018-May-19 04:59N 44°25' E 008°55'0 0.0
2018-May-19 04:29N 44°25' E 008°55'0 0.0
2018-May-19 03:59N 44°25' E 008°55'0 0.0
2018-May-19 03:29N 44°25' E 008°55'0 0.0
2018-May-19 02:59N 44°25' E 008°55'0 0.0
2018-May-19 02:29N 44°25' E 008°55'0 0.0
2018-May-19 01:59N 44°25' E 008°55'0 0.0
2018-May-19 01:29N 44°25' E 008°55'0 0.0
2018-May-19 00:59N 44°25' E 008°55'0 0.0
2018-May-19 00:26N 44°25' E 008°55'0 0.0
2018-May-18 23:56N 44°25' E 008°55'0 0.0
2018-May-18 23:26N 44°25' E 008°55'0 0.0
2018-May-18 22:56N 44°25' E 008°55'0 0.0
2018-May-18 22:26N 44°25' E 008°55'0 0.0
2018-May-18 21:56N 44°25' E 008°55'0 0.0
2018-May-18 21:20N 44°25' E 008°55'0 0.0
2018-May-18 20:53N 44°25' E 008°55'0 0.0
2018-May-18 20:26N 44°25' E 008°55'0 0.0
2018-May-18 19:56N 44°25' E 008°55'0 0.0
2018-May-18 19:26N 44°25' E 008°55'0 0.0
2018-May-18 18:56N 44°25' E 008°55'0 0.0
2018-May-18 18:26N 44°25' E 008°55'0 0.0
2018-May-18 17:59N 44°25' E 008°55'0 0.0
2018-May-18 17:29N 44°25' E 008°55'0 0.0
2018-May-18 16:59N 44°25' E 008°55'0 0.0
2018-May-18 16:29N 44°25' E 008°55'0 0.0
2018-May-18 15:59N 44°25' E 008°55'0 0.0
2018-May-18 15:29N 44°25' E 008°55'0 0.0
2018-May-18 14:59N 44°25' E 008°55'0 0.0
2018-May-18 14:29N 44°25' E 008°55'0 0.0
2018-May-18 13:59N 44°25' E 008°55'0 0.0
2018-May-18 13:29N 44°25' E 008°55'0 0.0
2018-May-18 12:47N 44°25' E 008°55'0 0.0
2018-May-18 12:29N 44°25' E 008°55'0 0.0
2018-May-18 11:59N 44°25' E 008°55'0 0.0
2018-May-18 11:29N 44°25' E 008°55'0 0.0
2018-May-18 10:59N 44°25' E 008°55'0 0.0
2018-May-18 10:20N 44°25' E 008°55'0 0.0
2018-May-18 09:56N 44°25' E 008°55'0 0.0
2018-May-18 09:26N 44°25' E 008°55'0 0.0
2018-May-18 08:56N 44°25' E 008°55'0 0.0
2018-May-18 08:23N 44°25' E 008°55'0 0.0
2018-May-18 07:56N 44°25' E 008°55'0 0.0
2018-May-18 07:26N 44°25' E 008°55'0 0.0
2018-May-18 06:56N 44°25' E 008°55'0 0.0
2018-May-18 06:26N 44°25' E 008°55'0 0.0
2018-May-18 05:56N 44°25' E 008°55'0 0.0
2018-May-18 05:26N 44°25' E 008°55'0 0.0
2018-May-18 04:56N 44°25' E 008°55'0 0.0
2018-May-18 04:26N 44°25' E 008°55'0 0.0
2018-May-18 03:56N 44°25' E 008°55'0 0.0
2018-May-18 03:26N 44°25' E 008°55'0 0.0
2018-May-18 02:59N 44°25' E 008°55'0 0.0
2018-May-18 02:29N 44°25' E 008°55'0 0.0
2018-May-18 01:59N 44°25' E 008°55'0 0.0
2018-May-18 01:29N 44°25' E 008°55'0 0.0
2018-May-18 00:59N 44°25' E 008°55'0 0.0
2018-May-18 00:29N 44°25' E 008°55'0 0.0
2018-May-17 23:59N 44°25' E 008°55'0 0.0
2018-May-17 23:29N 44°25' E 008°55'0 0.0
2018-May-17 22:59N 44°25' E 008°55'0 0.0
2018-May-17 22:29N 44°25' E 008°55'0 0.0
2018-May-17 21:59N 44°25' E 008°55'0 0.0
2018-May-17 21:29N 44°25' E 008°55'0 0.0
2018-May-17 20:59N 44°25' E 008°55'0 0.0
2018-May-17 20:26N 44°25' E 008°55'0 0.0
2018-May-17 19:56N 44°25' E 008°55'0 0.0
2018-May-17 19:26N 44°25' E 008°55'0 0.0
2018-May-17 18:56N 44°25' E 008°55'0 0.0
2018-May-17 18:26N 44°25' E 008°55'0 0.0
2018-May-17 17:56N 44°25' E 008°55'0 0.0
2018-May-17 17:26N 44°25' E 008°55'0 0.0
2018-May-17 16:56N 44°25' E 008°55'0 0.0
2018-May-17 16:26N 44°25' E 008°55'0 0.0
2018-May-17 15:56N 44°25' E 008°55'0 0.0
2018-May-17 15:26N 44°25' E 008°55'0 0.0
2018-May-17 14:56N 44°25' E 008°55'0 0.0
2018-May-17 14:26N 44°25' E 008°55'0 0.0
2018-May-17 13:56N 44°25' E 008°55'0 0.0
2018-May-17 13:29N 44°25' E 008°55'0 0.0
2018-May-17 12:59N 44°25' E 008°55'0 0.0
2018-May-17 12:29N 44°25' E 008°55'0 0.0
2018-May-17 11:59N 44°25' E 008°55'0 0.0
2018-May-17 11:29N 44°25' E 008°55'0 0.0
2018-May-17 10:59N 44°25' E 008°55'0 0.0
2018-May-17 10:29N 44°25' E 008°55'0 0.0
2018-May-17 09:50N 44°25' E 008°55'0 0.0
2018-May-17 09:29N 44°25' E 008°55'0 0.0
2018-May-17 08:59N 44°25' E 008°55'0 0.0
2018-May-17 08:17N 44°25' E 008°55'0 0.0
2018-May-17 07:59N 44°25' E 008°55'0 0.0
2018-May-17 07:29N 44°25' E 008°55'0 0.0
2018-May-17 06:59N 44°25' E 008°55'0 0.0
2018-May-17 06:23N 44°25' E 008°55'0 0.0
2018-May-17 05:56N 44°25' E 008°55'0 0.0
2018-May-17 05:26N 44°25' E 008°55'0 0.0
2018-May-17 04:56N 44°25' E 008°55'0 0.0
2018-May-17 04:29N 44°25' E 008°55'0 0.0
2018-May-17 03:56N 44°25' E 008°55'0 0.0
2018-May-17 03:23N 44°25' E 008°55'0 0.0
2018-May-17 02:56N 44°25' E 008°55'0 0.0
2018-May-17 02:29N 44°25' E 008°55'0 0.0
2018-May-17 01:56N 44°25' E 008°55'0 0.0
2018-May-17 01:29N 44°25' E 008°55'0 0.0
2018-May-17 00:56N 44°25' E 008°55'0 0.0
2018-May-17 00:29N 44°25' E 008°55'0 0.0
2018-May-16 23:56N 44°25' E 008°55'0 0.0
2018-May-16 23:26N 44°25' E 008°55'0 0.0
2018-May-16 22:59N 44°25' E 008°55'0 0.0
2018-May-16 22:29N 44°25' E 008°55'0 0.0
2018-May-16 21:59N 44°25' E 008°55'0 0.0
2018-May-16 21:29N 44°25' E 008°55'0 0.0
2018-May-16 20:59N 44°25' E 008°55'0 0.0
2018-May-16 20:29N 44°25' E 008°55'0 0.0
2018-May-16 19:59N 44°25' E 008°55'0 0.0
2018-May-16 19:29N 44°25' E 008°55'0 0.0
2018-May-16 18:59N 44°25' E 008°55'0 0.0
2018-May-16 18:29N 44°25' E 008°55'0 0.0
2018-May-16 17:59N 44°25' E 008°55'0 0.0
2018-May-16 17:29N 44°25' E 008°55'0 0.0
2018-May-16 16:59N 44°25' E 008°55'0 0.0
2018-May-16 16:29N 44°25' E 008°55'0 0.0
2018-May-16 15:56N 44°25' E 008°55'0 0.0
2018-May-16 15:29N 44°25' E 008°55'0 0.0
2018-May-16 14:53N 44°25' E 008°55'0 0.0
2018-May-16 14:23N 44°25' E 008°55'0 0.0
2018-May-16 13:59N 44°25' E 008°55'0 0.0
2018-May-16 13:26N 44°25' E 008°55'0 0.0
2018-May-16 12:59N 44°25' E 008°55'0 0.0
2018-May-16 12:26N 44°25' E 008°55'0 0.0
2018-May-16 11:56N 44°25' E 008°55'0 0.0
2018-May-16 11:29N 44°25' E 008°55'0 0.0
2018-May-16 10:56N 44°25' E 008°55'0 0.0
2018-May-16 10:29N 44°25' E 008°55'0 0.0
2018-May-16 09:56N 44°25' E 008°55'0 0.0
2018-May-16 09:29N 44°25' E 008°55'0 0.0
2018-May-16 08:59N 44°25' E 008°55'0 0.0
2018-May-16 08:29N 44°25' E 008°55'0 0.0
2018-May-16 07:59N 44°25' E 008°55'0 0.0
2018-May-16 07:29N 44°25' E 008°55'0 0.0
2018-May-16 06:59N 44°25' E 008°55'0 0.0
2018-May-16 06:29N 44°25' E 008°55'0 0.0
2018-May-16 05:59N 44°25' E 008°55'0 0.0
2018-May-16 05:29N 44°25' E 008°55'0 0.0
2018-May-16 04:59N 44°25' E 008°55'0 0.0
2018-May-16 04:29N 44°25' E 008°55'0 0.0
2018-May-16 03:59N 44°25' E 008°55'0 0.0
2018-May-16 03:29N 44°25' E 008°55'0 0.0
2018-May-16 02:59N 44°25' E 008°55'0 0.0
2018-May-16 02:29N 44°25' E 008°55'0 0.0
2018-May-16 01:50N 44°25' E 008°55'0 0.0
2018-May-16 01:26N 44°25' E 008°55'0 0.0
2018-May-16 00:59N 44°25' E 008°55'0 0.0
2018-May-16 00:29N 44°25' E 008°55'0 0.0
2018-May-15 23:56N 44°25' E 008°55'0 0.0
2018-May-15 23:29N 44°25' E 008°55'0 0.0
2018-May-15 22:53N 44°25' E 008°55'0 0.0
2018-May-15 22:26N 44°25' E 008°55'0 0.0
2018-May-15 21:59N 44°25' E 008°55'0 0.0
2018-May-15 21:26N 44°25' E 008°55'0 0.0
2018-May-15 20:59N 44°25' E 008°55'0 0.0
2018-May-15 20:26N 44°25' E 008°55'0 0.0
2018-May-15 19:56N 44°25' E 008°55'0 0.0
2018-May-15 19:29N 44°25' E 008°55'0 0.0
2018-May-15 18:59N 44°25' E 008°55'0 0.0
2018-May-15 18:29N 44°25' E 008°55'0 0.0
2018-May-15 17:59N 44°25' E 008°55'0 0.0
2018-May-15 17:29N 44°25' E 008°55'0 0.0
2018-May-15 16:59N 44°25' E 008°55'0 0.0
2018-May-15 16:29N 44°25' E 008°55'0 0.0
2018-May-15 15:59N 44°25' E 008°55'0 0.0
2018-May-15 15:29N 44°25' E 008°55'0 0.0
2018-May-15 14:59N 44°25' E 008°55'0 0.0
2018-May-15 14:29N 44°25' E 008°55'0 0.0
2018-May-15 13:59N 44°25' E 008°55'0 0.0
2018-May-15 13:29N 44°25' E 008°55'0 0.0
2018-May-15 12:59N 44°25' E 008°55'0 0.0
2018-May-15 12:29N 44°25' E 008°55'0 0.0
2018-May-15 11:50N 44°25' E 008°55'0 0.0
2018-May-15 11:26N 44°25' E 008°55'0 0.0
2018-May-15 10:56N 44°25' E 008°55'0 0.0
2018-May-15 10:26N 44°25' E 008°55'0 0.0
2018-May-15 09:56N 44°25' E 008°55'0 0.0
2018-May-15 09:26N 44°25' E 008°55'0 0.0
2018-May-15 08:53N 44°25' E 008°55'0 0.0
2018-May-15 08:23N 44°25' E 008°55'0 0.0
2018-May-15 07:56N 44°25' E 008°55'0 0.0
2018-May-15 07:26N 44°25' E 008°55'0 0.0
2018-May-15 06:56N 44°25' E 008°55'0 0.0
2018-May-15 06:26N 44°25' E 008°55'0 0.0
2018-May-15 05:56N 44°25' E 008°55'0 0.0
2018-May-15 05:26N 44°25' E 008°55'0 0.0
2018-May-15 04:59N 44°25' E 008°55'0 0.0
2018-May-15 04:29N 44°25' E 008°55'0 0.0
2018-May-15 03:59N 44°25' E 008°55'0 0.0
2018-May-15 03:29N 44°25' E 008°55'0 0.0
2018-May-15 02:59N 44°25' E 008°55'0 0.0
2018-May-15 02:29N 44°25' E 008°55'0 0.0
2018-May-15 01:59N 44°25' E 008°55'0 0.0
2018-May-15 01:29N 44°25' E 008°55'0 0.0
2018-May-15 00:59N 44°25' E 008°55'0 0.0
2018-May-15 00:29N 44°25' E 008°55'0 0.0
2018-May-14 23:59N 44°25' E 008°55'0 0.0
2018-May-14 23:29N 44°25' E 008°55'0 0.0
2018-May-14 22:59N 44°25' E 008°55'0 0.0
2018-May-14 22:26N 44°25' E 008°55'0 0.0
2018-May-14 21:56N 44°25' E 008°55'0 0.0
2018-May-14 21:26N 44°25' E 008°55'0 0.0
2018-May-14 20:56N 44°25' E 008°55'0 0.0
2018-May-14 20:26N 44°25' E 008°55'0 0.0
2018-May-14 19:56N 44°25' E 008°55'0 0.0
2018-May-14 19:26N 44°25' E 008°55'0 0.0
2018-May-14 18:56N 44°25' E 008°55'0 0.0
2018-May-14 18:26N 44°25' E 008°55'0 0.0
2018-May-14 17:53N 44°25' E 008°55'0 0.0
2018-May-14 17:26N 44°25' E 008°55'0 0.0
2018-May-14 16:56N 44°25' E 008°55'0 0.0
2018-May-14 16:26N 44°25' E 008°55'0 0.0
2018-May-14 15:56N 44°25' E 008°55'0 0.0
2018-May-14 15:26N 44°25' E 008°55'0 0.0
2018-May-14 14:59N 44°25' E 008°55'0 0.0
2018-May-14 14:29N 44°25' E 008°55'0 0.0
2018-May-14 13:59N 44°25' E 008°55'0 0.0
2018-May-14 13:29N 44°25' E 008°55'0 0.0
2018-May-14 12:59N 44°25' E 008°55'0 0.0
2018-May-14 12:29N 44°25' E 008°55'0 0.0
2018-May-14 11:59N 44°25' E 008°55'0 0.0
2018-May-14 11:29N 44°25' E 008°55'0 0.0
2018-May-14 10:59N 44°25' E 008°55'0 0.0
2018-May-14 10:29N 44°25' E 008°55'0 0.0
2018-May-14 09:59N 44°25' E 008°55'0 0.0
2018-May-14 09:29N 44°25' E 008°55'0 0.0
2018-May-14 08:59N 44°25' E 008°55'0 0.0
2018-May-14 08:29N 44°25' E 008°55'0 0.0
2018-May-14 07:56N 44°25' E 008°55'0 0.0
2018-May-14 07:26N 44°25' E 008°55'0 0.0
2018-May-14 06:56N 44°25' E 008°55'0 0.0
2018-May-14 06:26N 44°25' E 008°55'0 0.0
2018-May-14 05:56N 44°25' E 008°55'0 0.0
2018-May-14 05:26N 44°25' E 008°55'0 0.0
2018-May-14 04:56N 44°25' E 008°55'0 0.0
2018-May-14 04:23N 44°25' E 008°55'0 0.0
2018-May-14 03:56N 44°25' E 008°55'0 0.0
2018-May-14 03:26N 44°25' E 008°55'0 0.0
2018-May-14 02:56N 44°25' E 008°55'0 0.0
2018-May-14 02:26N 44°25' E 008°55'0 0.0
2018-May-14 01:56N 44°25' E 008°55'0 0.0
2018-May-14 01:26N 44°25' E 008°55'0 0.0
2018-May-14 00:59N 44°25' E 008°55'0 0.0
2018-May-14 00:29N 44°25' E 008°55'0 0.0
2018-May-13 23:59N 44°25' E 008°55'0 0.0
2018-May-13 23:29N 44°25' E 008°55'0 0.0
2018-May-13 22:59N 44°25' E 008°55'0 0.0
2018-May-13 22:29N 44°25' E 008°55'0 0.0
2018-May-13 21:59N 44°25' E 008°55'0 0.0
2018-May-13 21:29N 44°25' E 008°55'0 0.0
2018-May-13 20:59N 44°25' E 008°55'  
Track history (hours):
 
Tides and Currents Weather Stations Pressure Air Temp Water Temp Dewpoint Dewpoint Depression Visibility Wind Speed Wind Dir Waves Ship Positions

M/y Sokar

Last reported at 2018-May-23 20:52 UTC. Time now 2018-May-24 02:28 UTC.
Position N 44°18' E 009°13'.

Length 64 m; draft 3.9 m.

Type: Pleasure craft. MMSI: 310222000.

Date/timePositionNaut miles runAvg speedWind from/ knotsBaromVisibWave heightAir tempDewpointWater temp
2018-May-23 20:52N 44°18' E 009°13'0 0.1
2018-May-23 16:31N 44°18' E 009°13'0 1.0
2018-May-23 16:28N 44°18' E 009°13'0 0.9
2018-May-23 16:00N 44°19' E 009°13'0 0.1
2018-May-23 15:30N 44°19' E 009°13'0 0.0
2018-May-23 15:00N 44°19' E 009°13'0 0.0
2018-May-23 14:30N 44°19' E 009°13'0 0.0
2018-May-23 14:00N 44°19' E 009°13'0 0.0
2018-May-23 13:30N 44°19' E 009°13'0 0.0
2018-May-23 12:57N 44°19' E 009°13'0 0.0
2018-May-23 12:27N 44°19' E 009°13'0 0.0
2018-May-23 11:27N 44°19' E 009°13'1 1.9
2018-May-23 11:01N 44°18' E 009°14'611.1
2018-May-23 10:30N 44°13' E 009°17'3 6.4
2018-May-23 10:00N 44°13' E 009°21'2 3.2
2018-May-23 09:30N 44°15' E 009°22'6 7.7
2018-May-23 08:40N 44°19' E 009°16'2 6.6
2018-May-23 08:24N 44°19' E 009°13'0 0.1
2018-May-23 06:38N 44°18' E 009°13'0 0.0
2018-May-23 05:32N 44°18' E 009°13'0 0.0
2018-May-23 05:14N 44°18' E 009°13'0 0.0
2018-May-23 04:41N 44°18' E 009°13'0 0.0
2018-May-23 04:29N 44°18' E 009°13'0 0.0
2018-May-23 03:53N 44°18' E 009°13'0 0.0
2018-May-23 03:26N 44°18' E 009°13'0 0.0
2018-May-23 02:59N 44°18' E 009°13'0 0.0
2018-May-23 02:20N 44°18' E 009°13'0 0.0
2018-May-23 01:08N 44°18' E 009°13'0 0.1
2018-May-23 00:59N 44°18' E 009°13'0 0.0
2018-May-23 00:29N 44°18' E 009°13'0 0.0
2018-May-22 23:41N 44°18' E 009°13'0 0.0
2018-May-22 23:20N 44°18' E 009°13'0 0.0
2018-May-22 22:50N 44°18' E 009°13'0 0.0
2018-May-22 22:08N 44°18' E 009°13'0 0.0
2018-May-22 21:53N 44°18' E 009°13'0 0.0
2018-May-22 21:02N 44°18' E 009°13'0 0.0
2018-May-22 20:41N 44°18' E 009°13'0 0.0
2018-May-22 19:44N 44°18' E 009°13'0 0.0
2018-May-22 19:17N 44°18' E 009°13'0 0.0
2018-May-22 18:59N 44°19' E 009°13'0 0.0
2018-May-22 18:20N 44°19' E 009°13'0 0.0
2018-May-22 17:47N 44°19' E 009°13'0 0.0
2018-May-22 17:26N 44°19' E 009°13'0 0.0
2018-May-22 16:50N 44°19' E 009°13'0 0.0
2018-May-22 16:23N 44°19' E 009°13'0 0.0
2018-May-22 15:47N 44°19' E 009°13'0 0.0
2018-May-22 15:29N 44°19' E 009°13'0 0.0
2018-May-22 14:47N 44°19' E 009°13'0 0.0
2018-May-22 14:11N 44°19' E 009°13'0 0.0
2018-May-22 13:59N 44°19' E 009°13'0 0.0
2018-May-22 13:29N 44°19' E 009°13'0 0.1
2018-May-22 12:59N 44°19' E 009°13'0 0.1
2018-May-22 12:29N 44°19' E 009°13'0 0.0
2018-May-22 10:08N 44°18' E 009°13'0 0.0
2018-May-22 09:44N 44°18' E 009°13'0 0.0
2018-May-22 09:17N 44°18' E 009°13'0 0.1
2018-May-22 09:00N 44°19' E 009°13'2 4.7
2018-May-22 08:30N 44°17' E 009°11'713.9
2018-May-22 08:00N 44°19' E 009°01'511.0
2018-May-22 07:30N 44°23' E 008°57'2 3.3
2018-May-22 06:59N 44°25' E 008°55'0 0.0
2018-May-22 06:26N 44°25' E 008°55'0 0.0
2018-May-22 05:59N 44°25' E 008°55'0 0.0
2018-May-22 05:29N 44°25' E 008°55'0 0.0
2018-May-22 04:59N 44°25' E 008°55'0 0.0
2018-May-22 04:29N 44°25' E 008°55'0 0.0
2018-May-22 03:59N 44°25' E 008°55'0 0.0
2018-May-22 03:29N 44°25' E 008°55'0 0.0
2018-May-22 02:59N 44°25' E 008°55'0 0.0
2018-May-22 02:29N 44°25' E 008°55'0 0.0
2018-May-22 01:59N 44°25' E 008°55'0 0.0
2018-May-22 01:29N 44°25' E 008°55'0 0.0
2018-May-22 00:59N 44°25' E 008°55'0 0.0
2018-May-22 00:29N 44°25' E 008°55'0 0.0
2018-May-21 23:59N 44°25' E 008°55'0 0.0
2018-May-21 23:29N 44°25' E 008°55'0 0.0
2018-May-21 22:56N 44°25' E 008°55'0 0.0
2018-May-21 22:26N 44°25' E 008°55'0 0.0
2018-May-21 21:56N 44°25' E 008°55'0 0.0
2018-May-21 21:26N 44°25' E 008°55'0 0.0
2018-May-21 20:59N 44°25' E 008°55'0 0.0
2018-May-21 20:26N 44°25' E 008°55'0 0.0
2018-May-21 19:53N 44°25' E 008°55'0 0.0
2018-May-21 19:26N 44°25' E 008°55'0 0.0
2018-May-21 18:56N 44°25' E 008°55'0 0.0
2018-May-21 18:29N 44°25' E 008°55'0 0.0
2018-May-21 17:56N 44°25' E 008°55'0 0.0
2018-May-21 17:29N 44°25' E 008°55'0 0.0
2018-May-21 16:56N 44°25' E 008°55'0 0.0
2018-May-21 16:26N 44°25' E 008°55'0 0.0
2018-May-21 15:59N 44°25' E 008°55'0 0.0
2018-May-21 15:29N 44°25' E 008°55'0 0.0
2018-May-21 14:59N 44°25' E 008°55'0 0.0
2018-May-21 14:29N 44°25' E 008°55'0 0.0
2018-May-21 13:59N 44°25' E 008°55'0 0.0
2018-May-21 13:29N 44°25' E 008°55'0 0.0
2018-May-21 12:56N 44°25' E 008°55'0 0.0
2018-May-21 12:29N 44°25' E 008°55'0 0.0
2018-May-21 11:53N 44°25' E 008°55'0 0.0
2018-May-21 11:29N 44°25' E 008°55'0 0.0
2018-May-21 10:59N 44°25' E 008°55'0 0.0
2018-May-21 10:29N 44°25' E 008°55'0 0.0
2018-May-21 09:59N 44°25' E 008°55'0 0.0
2018-May-21 09:29N 44°25' E 008°55'0 0.0
2018-May-21 08:56N 44°25' E 008°55'0 0.0
2018-May-21 08:20N 44°25' E 008°55'0 0.0
2018-May-21 07:56N 44°25' E 008°55'0 0.0
2018-May-21 07:29N 44°25' E 008°55'0 0.0
2018-May-21 06:59N 44°25' E 008°55'0 0.0
2018-May-21 06:23N 44°25' E 008°55'0 0.0
2018-May-21 05:59N 44°25' E 008°55'0 0.0
2018-May-21 05:26N 44°25' E 008°55'0 0.0
2018-May-21 04:59N 44°25' E 008°55'0 0.0
2018-May-21 04:26N 44°25' E 008°55'0 0.0
2018-May-21 03:56N 44°25' E 008°55'0 0.0
2018-May-21 03:29N 44°25' E 008°55'0 0.0
2018-May-21 02:56N 44°25' E 008°55'0 0.0
2018-May-21 02:29N 44°25' E 008°55'0 0.0
2018-May-21 01:56N 44°25' E 008°55'0 0.0
2018-May-21 01:29N 44°25' E 008°55'0 0.0
2018-May-21 00:59N 44°25' E 008°55'0 0.0
2018-May-21 00:29N 44°25' E 008°55'0 0.0
2018-May-20 23:59N 44°25' E 008°55'0 0.0
2018-May-20 23:29N 44°25' E 008°55'0 0.0
2018-May-20 22:59N 44°25' E 008°55'0 0.0
2018-May-20 22:29N 44°25' E 008°55'0 0.0
2018-May-20 21:59N 44°25' E 008°55'0 0.0
2018-May-20 21:29N 44°25' E 008°55'0 0.0
2018-May-20 20:56N 44°25' E 008°55'0 0.0
2018-May-20 20:29N 44°25' E 008°55'0 0.0
2018-May-20 19:59N 44°25' E 008°55'0 0.0
2018-May-20 19:17N 44°25' E 008°55'0 0.0
2018-May-20 18:59N 44°25' E 008°55'0 0.0
2018-May-20 18:26N 44°25' E 008°55'0 0.0
2018-May-20 17:50N 44°25' E 008°55'0 0.0
2018-May-20 17:29N 44°25' E 008°55'0 0.0
2018-May-20 16:53N 44°25' E 008°55'0 0.0
2018-May-20 16:26N 44°25' E 008°55'0 0.0
2018-May-20 15:53N 44°25' E 008°55'0 0.0
2018-May-20 15:20N 44°25' E 008°55'0 0.0
2018-May-20 14:56N 44°25' E 008°55'0 0.0
2018-May-20 14:26N 44°25' E 008°55'0 0.0
2018-May-20 13:56N 44°25' E 008°55'0 0.0
2018-May-20 13:26N 44°25' E 008°55'0 0.0
2018-May-20 12:56N 44°25' E 008°55'0 0.0
2018-May-20 12:26N 44°25' E 008°55'0 0.0
2018-May-20 11:59N 44°25' E 008°55'0 0.0
2018-May-20 11:29N 44°25' E 008°55'0 0.0
2018-May-20 10:59N 44°25' E 008°55'0 0.0
2018-May-20 10:26N 44°25' E 008°55'0 0.0
2018-May-20 09:59N 44°25' E 008°55'0 0.0
2018-May-20 09:29N 44°25' E 008°55'0 0.0
2018-May-20 08:59N 44°25' E 008°55'0 0.0
2018-May-20 08:29N 44°25' E 008°55'0 0.0
2018-May-20 07:59N 44°25' E 008°55'0 0.0
2018-May-20 07:29N 44°25' E 008°55'0 0.0
2018-May-20 06:59N 44°25' E 008°55'0 0.0
2018-May-20 06:29N 44°25' E 008°55'0 0.0
2018-May-20 05:59N 44°25' E 008°55'0 0.0
2018-May-20 05:29N 44°25' E 008°55'0 0.0
2018-May-20 04:59N 44°25' E 008°55'0 0.0
2018-May-20 04:26N 44°25' E 008°55'0 0.0
2018-May-20 03:56N 44°25' E 008°55'0 0.0
2018-May-20 03:26N 44°25' E 008°55'0 0.0
2018-May-20 02:56N 44°25' E 008°55'0 0.0
2018-May-20 02:26N 44°25' E 008°55'0 0.0
2018-May-20 01:56N 44°25' E 008°55'0 0.0
2018-May-20 01:23N 44°25' E 008°55'0 0.0
2018-May-20 00:56N 44°25' E 008°55'0 0.0
2018-May-20 00:26N 44°25' E 008°55'0 0.0
2018-May-19 23:56N 44°25' E 008°55'0 0.0
2018-May-19 23:26N 44°25' E 008°55'0 0.0
2018-May-19 22:56N 44°25' E 008°55'0 0.0
2018-May-19 22:26N 44°25' E 008°55'0 0.0
2018-May-19 21:56N 44°25' E 008°55'0 0.0
2018-May-19 21:29N 44°25' E 008°55'0 0.0
2018-May-19 20:59N 44°25' E 008°55'0 0.0
2018-May-19 20:29N 44°25' E 008°55'0 0.0
2018-May-19 19:59N 44°25' E 008°55'0 0.0
2018-May-19 19:29N 44°25' E 008°55'0 0.0
2018-May-19 18:59N 44°25' E 008°55'0 0.0
2018-May-19 18:29N 44°25' E 008°55'0 0.0
2018-May-19 17:59N 44°25' E 008°55'0 0.0
2018-May-19 17:29N 44°25' E 008°55'0 0.0
2018-May-19 16:56N 44°25' E 008°55'0 0.0
2018-May-19 16:29N 44°25' E 008°55'0 0.0
2018-May-19 15:59N 44°25' E 008°55'0 0.0
2018-May-19 15:29N 44°25' E 008°55'0 0.0
2018-May-19 14:59N 44°25' E 008°55'0 0.0
2018-May-19 14:26N 44°25' E 008°55'0 0.0
2018-May-19 13:56N 44°25' E 008°55'0 0.0
2018-May-19 13:26N 44°25' E 008°55'0 0.0
2018-May-19 12:56N 44°25' E 008°55'0 0.0
2018-May-19 12:26N 44°25' E 008°55'0 0.0
2018-May-19 11:56N 44°25' E 008°55'0 0.0
2018-May-19 11:26N 44°25' E 008°55'0 0.0
2018-May-19 10:56N 44°25' E 008°55'0 0.0
2018-May-19 10:26N 44°25' E 008°55'0 0.0
2018-May-19 09:56N 44°25' E 008°55'0 0.0
2018-May-19 09:26N 44°25' E 008°55'0 0.0
2018-May-19 08:56N 44°25' E 008°55'0 0.0
2018-May-19 08:23N 44°25' E 008°55'0 0.0
2018-May-19 07:56N 44°25' E 008°55'0 0.0
2018-May-19 07:29N 44°25' E 008°55'0 0.0
2018-May-19 06:59N 44°25' E 008°55'0 0.0
2018-May-19 06:29N 44°25' E 008°55'0 0.0
2018-May-19 05:59N 44°25' E 008°55'0 0.0
2018-May-19 05:29N 44°25' E 008°55'0 0.0
2018-May-19 04:59N 44°25' E 008°55'0 0.0
2018-May-19 04:29N 44°25' E 008°55'0 0.0
2018-May-19 03:59N 44°25' E 008°55'0 0.0
2018-May-19 03:29N 44°25' E 008°55'0 0.0
2018-May-19 02:59N 44°25' E 008°55'0 0.0
2018-May-19 02:29N 44°25' E 008°55'0 0.0
2018-May-19 01:59N 44°25' E 008°55'0 0.0
2018-May-19 01:29N 44°25' E 008°55'0 0.0
2018-May-19 00:59N 44°25' E 008°55'0 0.0
2018-May-19 00:26N 44°25' E 008°55'0 0.0
2018-May-18 23:56N 44°25' E 008°55'0 0.0
2018-May-18 23:26N 44°25' E 008°55'0 0.0
2018-May-18 22:56N 44°25' E 008°55'0 0.0
2018-May-18 22:26N 44°25' E 008°55'0 0.0
2018-May-18 21:56N 44°25' E 008°55'0 0.0
2018-May-18 21:20N 44°25' E 008°55'0 0.0
2018-May-18 20:53N 44°25' E 008°55'0 0.0
2018-May-18 20:26N 44°25' E 008°55'0 0.0
2018-May-18 19:56N 44°25' E 008°55'0 0.0
2018-May-18 19:26N 44°25' E 008°55'0 0.0
2018-May-18 18:56N 44°25' E 008°55'0 0.0
2018-May-18 18:26N 44°25' E 008°55'0 0.0
2018-May-18 17:59N 44°25' E 008°55'0 0.0
2018-May-18 17:29N 44°25' E 008°55'0 0.0
2018-May-18 16:59N 44°25' E 008°55'0 0.0
2018-May-18 16:29N 44°25' E 008°55'0 0.0
2018-May-18 15:59N 44°25' E 008°55'0 0.0
2018-May-18 15:29N 44°25' E 008°55'0 0.0
2018-May-18 14:59N 44°25' E 008°55'0 0.0
2018-May-18 14:29N 44°25' E 008°55'0 0.0
2018-May-18 13:59N 44°25' E 008°55'0 0.0
2018-May-18 13:29N 44°25' E 008°55'0 0.0
2018-May-18 12:47N 44°25' E 008°55'0 0.0
2018-May-18 12:29N 44°25' E 008°55'0 0.0
2018-May-18 11:59N 44°25' E 008°55'0 0.0
2018-May-18 11:29N 44°25' E 008°55'0 0.0
2018-May-18 10:59N 44°25' E 008°55'0 0.0
2018-May-18 10:20N 44°25' E 008°55'0 0.0
2018-May-18 09:56N 44°25' E 008°55'0 0.0
2018-May-18 09:26N 44°25' E 008°55'0 0.0
2018-May-18 08:56N 44°25' E 008°55'0 0.0
2018-May-18 08:23N 44°25' E 008°55'0 0.0
2018-May-18 07:56N 44°25' E 008°55'0 0.0
2018-May-18 07:26N 44°25' E 008°55'0 0.0
2018-May-18 06:56N 44°25' E 008°55'0 0.0
2018-May-18 06:26N 44°25' E 008°55'0 0.0
2018-May-18 05:56N 44°25' E 008°55'0 0.0
2018-May-18 05:26N 44°25' E 008°55'0 0.0
2018-May-18 04:56N 44°25' E 008°55'0 0.0
2018-May-18 04:26N 44°25' E 008°55'0 0.0
2018-May-18 03:56N 44°25' E 008°55'0 0.0
2018-May-18 03:26N 44°25' E 008°55'0 0.0
2018-May-18 02:59N 44°25' E 008°55'0 0.0
2018-May-18 02:29N 44°25' E 008°55'0 0.0
2018-May-18 01:59N 44°25' E 008°55'0 0.0
2018-May-18 01:29N 44°25' E 008°55'0 0.0
2018-May-18 00:59N 44°25' E 008°55'0 0.0
2018-May-18 00:29N 44°25' E 008°55'0 0.0
2018-May-17 23:59N 44°25' E 008°55'0 0.0
2018-May-17 23:29N 44°25' E 008°55'0 0.0
2018-May-17 22:59N 44°25' E 008°55'0 0.0
2018-May-17 22:29N 44°25' E 008°55'0 0.0
2018-May-17 21:59N 44°25' E 008°55'0 0.0
2018-May-17 21:29N 44°25' E 008°55'0 0.0
2018-May-17 20:59N 44°25' E 008°55'0 0.0
2018-May-17 20:26N 44°25' E 008°55'0 0.0
2018-May-17 19:56N 44°25' E 008°55'0 0.0
2018-May-17 19:26N 44°25' E 008°55'0 0.0
2018-May-17 18:56N 44°25' E 008°55'0 0.0
2018-May-17 18:26N 44°25' E 008°55'0 0.0
2018-May-17 17:56N 44°25' E 008°55'0 0.0
2018-May-17 17:26N 44°25' E 008°55'0 0.0
2018-May-17 16:56N 44°25' E 008°55'0 0.0
2018-May-17 16:26N 44°25' E 008°55'0 0.0
2018-May-17 15:56N 44°25' E 008°55'0 0.0
2018-May-17 15:26N 44°25' E 008°55'0 0.0
2018-May-17 14:56N 44°25' E 008°55'0 0.0
2018-May-17 14:26N 44°25' E 008°55'0 0.0
2018-May-17 13:56N 44°25' E 008°55'0 0.0
2018-May-17 13:29N 44°25' E 008°55'0 0.0
2018-May-17 12:59N 44°25' E 008°55'0 0.0
2018-May-17 12:29N 44°25' E 008°55'0 0.0
2018-May-17 11:59N 44°25' E 008°55'0 0.0
2018-May-17 11:29N 44°25' E 008°55'0 0.0
2018-May-17 10:59N 44°25' E 008°55'0 0.0
2018-May-17 10:29N 44°25' E 008°55'0 0.0
2018-May-17 09:50N 44°25' E 008°55'0 0.0
2018-May-17 09:29N 44°25' E 008°55'0 0.0
2018-May-17 08:59N 44°25' E 008°55'0 0.0
2018-May-17 08:17N 44°25' E 008°55'0 0.0
2018-May-17 07:59N 44°25' E 008°55'0 0.0
2018-May-17 07:29N 44°25' E 008°55'0 0.0
2018-May-17 06:59N 44°25' E 008°55'0 0.0
2018-May-17 06:23N 44°25' E 008°55'0 0.0
2018-May-17 05:56N 44°25' E 008°55'0 0.0
2018-May-17 05:26N 44°25' E 008°55'0 0.0
2018-May-17 04:56N 44°25' E 008°55'0 0.0
2018-May-17 04:29N 44°25' E 008°55'0 0.0
2018-May-17 03:56N 44°25' E 008°55'0 0.0
2018-May-17 03:23N 44°25' E 008°55'0 0.0
2018-May-17 02:56N 44°25' E 008°55'0 0.0
2018-May-17 02:29N 44°25' E 008°55'0 0.0
2018-May-17 01:56N 44°25' E 008°55'0 0.0
2018-May-17 01:29N 44°25' E 008°55'0 0.0
2018-May-17 00:56N 44°25' E 008°55'0 0.0
2018-May-17 00:29N 44°25' E 008°55'0 0.0
2018-May-16 23:56N 44°25' E 008°55'0 0.0
2018-May-16 23:26N 44°25' E 008°55'0 0.0
2018-May-16 22:59N 44°25' E 008°55'0 0.0
2018-May-16 22:29N 44°25' E 008°55'0 0.0
2018-May-16 21:59N 44°25' E 008°55'0 0.0
2018-May-16 21:29N 44°25' E 008°55'0 0.0
2018-May-16 20:59N 44°25' E 008°55'0 0.0
2018-May-16 20:29N 44°25' E 008°55'0 0.0
2018-May-16 19:59N 44°25' E 008°55'0 0.0
2018-May-16 19:29N 44°25' E 008°55'0 0.0
2018-May-16 18:59N 44°25' E 008°55'0 0.0
2018-May-16 18:29N 44°25' E 008°55'0 0.0
2018-May-16 17:59N 44°25' E 008°55'0 0.0
2018-May-16 17:29N 44°25' E 008°55'0 0.0
2018-May-16 16:59N 44°25' E 008°55'0 0.0
2018-May-16 16:29N 44°25' E 008°55'0 0.0
2018-May-16 15:56N 44°25' E 008°55'0 0.0
2018-May-16 15:29N 44°25' E 008°55'0 0.0
2018-May-16 14:53N 44°25' E 008°55'0 0.0
2018-May-16 14:23N 44°25' E 008°55'0 0.0
2018-May-16 13:59N 44°25' E 008°55'0 0.0
2018-May-16 13:26N 44°25' E 008°55'0 0.0
2018-May-16 12:59N 44°25' E 008°55'0 0.0
2018-May-16 12:26N 44°25' E 008°55'0 0.0
2018-May-16 11:56N 44°25' E 008°55'0 0.0
2018-May-16 11:29N 44°25' E 008°55'0 0.0
2018-May-16 10:56N 44°25' E 008°55'0 0.0
2018-May-16 10:29N 44°25' E 008°55'0 0.0
2018-May-16 09:56N 44°25' E 008°55'0 0.0
2018-May-16 09:29N 44°25' E 008°55'0 0.0
2018-May-16 08:59N 44°25' E 008°55'0 0.0
2018-May-16 08:29N 44°25' E 008°55'0 0.0
2018-May-16 07:59N 44°25' E 008°55'0 0.0
2018-May-16 07:29N 44°25' E 008°55'0 0.0
2018-May-16 06:59N 44°25' E 008°55'0 0.0
2018-May-16 06:29N 44°25' E 008°55'0 0.0
2018-May-16 05:59N 44°25' E 008°55'0 0.0
2018-May-16 05:29N 44°25' E 008°55'0 0.0
2018-May-16 04:59N 44°25' E 008°55'0 0.0
2018-May-16 04:29N 44°25' E 008°55'0 0.0
2018-May-16 03:59N 44°25' E 008°55'0 0.0
2018-May-16 03:29N 44°25' E 008°55'0 0.0
2018-May-16 02:59N 44°25' E 008°55'0 0.0
2018-May-16 02:29N 44°25' E 008°55'0 0.0
2018-May-16 01:50N 44°25' E 008°55'0 0.0
2018-May-16 01:26N 44°25' E 008°55'0 0.0
2018-May-16 00:59N 44°25' E 008°55'0 0.0
2018-May-16 00:29N 44°25' E 008°55'0 0.0
2018-May-15 23:56N 44°25' E 008°55'0 0.0
2018-May-15 23:29N 44°25' E 008°55'0 0.0
2018-May-15 22:53N 44°25' E 008°55'0 0.0
2018-May-15 22:26N 44°25' E 008°55'0 0.0
2018-May-15 21:59N 44°25' E 008°55'0 0.0
2018-May-15 21:26N 44°25' E 008°55'0 0.0
2018-May-15 20:59N 44°25' E 008°55'0 0.0
2018-May-15 20:26N 44°25' E 008°55'0 0.0
2018-May-15 19:56N 44°25' E 008°55'0 0.0
2018-May-15 19:29N 44°25' E 008°55'0 0.0
2018-May-15 18:59N 44°25' E 008°55'0 0.0
2018-May-15 18:29N 44°25' E 008°55'0 0.0
2018-May-15 17:59N 44°25' E 008°55'0 0.0
2018-May-15 17:29N 44°25' E 008°55'0 0.0
2018-May-15 16:59N 44°25' E 008°55'0 0.0
2018-May-15 16:29N 44°25' E 008°55'0 0.0
2018-May-15 15:59N 44°25' E 008°55'0 0.0
2018-May-15 15:29N 44°25' E 008°55'0 0.0
2018-May-15 14:59N 44°25' E 008°55'0 0.0
2018-May-15 14:29N 44°25' E 008°55'0 0.0
2018-May-15 13:59N 44°25' E 008°55'0 0.0
2018-May-15 13:29N 44°25' E 008°55'0 0.0
2018-May-15 12:59N 44°25' E 008°55'0 0.0
2018-May-15 12:29N 44°25' E 008°55'0 0.0
2018-May-15 11:50N 44°25' E 008°55'0 0.0
2018-May-15 11:26N 44°25' E 008°55'0 0.0
2018-May-15 10:56N 44°25' E 008°55'0 0.0
2018-May-15 10:26N 44°25' E 008°55'0 0.0
2018-May-15 09:56N 44°25' E 008°55'0 0.0
2018-May-15 09:26N 44°25' E 008°55'0 0.0
2018-May-15 08:53N 44°25' E 008°55'0 0.0
2018-May-15 08:23N 44°25' E 008°55'0 0.0
2018-May-15 07:56N 44°25' E 008°55'0 0.0
2018-May-15 07:26N 44°25' E 008°55'0 0.0
2018-May-15 06:56N 44°25' E 008°55'0 0.0
2018-May-15 06:26N 44°25' E 008°55'0 0.0
2018-May-15 05:56N 44°25' E 008°55'0 0.0
2018-May-15 05:26N 44°25' E 008°55'0 0.0
2018-May-15 04:59N 44°25' E 008°55'0 0.0
2018-May-15 04:29N 44°25' E 008°55'0 0.0
2018-May-15 03:59N 44°25' E 008°55'0 0.0
2018-May-15 03:29N 44°25' E 008°55'0 0.0
2018-May-15 02:59N 44°25' E 008°55'0 0.0
2018-May-15 02:29N 44°25' E 008°55'0 0.0
2018-May-15 01:59N 44°25' E 008°55'0 0.0
2018-May-15 01:29N 44°25' E 008°55'0 0.0
2018-May-15 00:59N 44°25' E 008°55'0 0.0
2018-May-15 00:29N 44°25' E 008°55'0 0.0
2018-May-14 23:59N 44°25' E 008°55'0 0.0
2018-May-14 23:29N 44°25' E 008°55'0 0.0
2018-May-14 22:59N 44°25' E 008°55'0 0.0
2018-May-14 22:26N 44°25' E 008°55'0 0.0
2018-May-14 21:56N 44°25' E 008°55'0 0.0
2018-May-14 21:26N 44°25' E 008°55'0 0.0
2018-May-14 20:56N 44°25' E 008°55'0 0.0
2018-May-14 20:26N 44°25' E 008°55'0 0.0
2018-May-14 19:56N 44°25' E 008°55'0 0.0
2018-May-14 19:26N 44°25' E 008°55'0 0.0
2018-May-14 18:56N 44°25' E 008°55'0 0.0
2018-May-14 18:26N 44°25' E 008°55'0 0.0
2018-May-14 17:53N 44°25' E 008°55'0 0.0
2018-May-14 17:26N 44°25' E 008°55'0 0.0
2018-May-14 16:56N 44°25' E 008°55'0 0.0
2018-May-14 16:26N 44°25' E 008°55'0 0.0
2018-May-14 15:56N 44°25' E 008°55'0 0.0
2018-May-14 15:26N 44°25' E 008°55'0 0.0
2018-May-14 14:59N 44°25' E 008°55'0 0.0
2018-May-14 14:29N 44°25' E 008°55'0 0.0
2018-May-14 13:59N 44°25' E 008°55'0 0.0
2018-May-14 13:29N 44°25' E 008°55'0 0.0
2018-May-14 12:59N 44°25' E 008°55'0 0.0
2018-May-14 12:29N 44°25' E 008°55'0 0.0
2018-May-14 11:59N 44°25' E 008°55'0 0.0
2018-May-14 11:29N 44°25' E 008°55'0 0.0
2018-May-14 10:59N 44°25' E 008°55'0 0.0
2018-May-14 10:29N 44°25' E 008°55'0 0.0
2018-May-14 09:59N 44°25' E 008°55'0 0.0
2018-May-14 09:29N 44°25' E 008°55'0 0.0
2018-May-14 08:59N 44°25' E 008°55'0 0.0
2018-May-14 08:29N 44°25' E 008°55'0 0.0
2018-May-14 07:56N 44°25' E 008°55'0 0.0
2018-May-14 07:26N 44°25' E 008°55'0 0.0
2018-May-14 06:56N 44°25' E 008°55'0 0.0
2018-May-14 06:26N 44°25' E 008°55'0 0.0
2018-May-14 05:56N 44°25' E 008°55'0 0.0
2018-May-14 05:26N 44°25' E 008°55'0 0.0
2018-May-14 04:56N 44°25' E 008°55'0 0.0
2018-May-14 04:23N 44°25' E 008°55'0 0.0
2018-May-14 03:56N 44°25' E 008°55'0 0.0
2018-May-14 03:26N 44°25' E 008°55'0 0.0
2018-May-14 02:56N 44°25' E 008°55'0 0.0
2018-May-14 02:26N 44°25' E 008°55'0 0.0
2018-May-14 01:56N 44°25' E 008°55'0 0.0
2018-May-14 01:26N 44°25' E 008°55'0 0.0
2018-May-14 00:59N 44°25' E 008°55'0 0.0
2018-May-14 00:29N 44°25' E 008°55'0 0.0
2018-May-13 23:59N 44°25' E 008°55'0 0.0
2018-May-13 23:29N 44°25' E 008°55'0 0.0
2018-May-13 22:59N 44°25' E 008°55'0 0.0
2018-May-13 22:29N 44°25' E 008°55'0 0.0
2018-May-13 21:59N 44°25' E 008°55'0 0.0
2018-May-13 21:29N 44°25' E 008°55'0 0.0
2018-May-13 20:59N 44°25' E 008°55'  

Dump ship's entire track history